sensor_id;sensor_type;location;lat;lon;timestamp;pressure;altitude;pressure_sealevel;temperature;humidity
81641;BME280;71053;50.722;-1.944;2023-10-08T00:02:25;102057.08;;;16.00;91.59
81641;BME280;71053;50.722;-1.944;2023-10-08T00:04:50;102053.76;;;16.05;91.19
81641;BME280;71053;50.722;-1.944;2023-10-08T00:07:17;102054.13;;;15.88;92.15
81641;BME280;71053;50.722;-1.944;2023-10-08T00:09:41;102053.23;;;15.91;92.10
81641;BME280;71053;50.722;-1.944;2023-10-08T00:12:07;102052.54;;;15.87;92.81
81641;BME280;71053;50.722;-1.944;2023-10-08T00:14:32;102051.64;;;15.77;93.43
81641;BME280;71053;50.722;-1.944;2023-10-08T00:16:58;102051.93;;;15.82;94.32
81641;BME280;71053;50.722;-1.944;2023-10-08T00:19:23;102054.59;;;15.86;93.88
81641;BME280;71053;50.722;-1.944;2023-10-08T00:21:49;102062.78;;;15.68;94.76
81641;BME280;71053;50.722;-1.944;2023-10-08T00:24:14;102064.88;;;15.75;94.17
81641;BME280;71053;50.722;-1.944;2023-10-08T00:26:39;102062.35;;;15.92;93.17
81641;BME280;71053;50.722;-1.944;2023-10-08T00:29:06;102060.10;;;15.98;93.11
81641;BME280;71053;50.722;-1.944;2023-10-08T00:31:29;102060.96;;;15.96;94.62
81641;BME280;71053;50.722;-1.944;2023-10-08T00:33:55;102058.45;;;15.89;93.21
81641;BME280;71053;50.722;-1.944;2023-10-08T00:36:20;102059.44;;;15.82;93.92
81641;BME280;71053;50.722;-1.944;2023-10-08T00:38:45;102061.61;;;15.85;93.86
81641;BME280;71053;50.722;-1.944;2023-10-08T00:41:13;102064.96;;;15.82;94.15
81641;BME280;71053;50.722;-1.944;2023-10-08T00:43:35;102060.48;;;15.79;93.71
81641;BME280;71053;50.722;-1.944;2023-10-08T00:46:01;102062.10;;;15.63;95.06
81641;BME280;71053;50.722;-1.944;2023-10-08T00:48:26;102059.43;;;15.76;94.12
81641;BME280;71053;50.722;-1.944;2023-10-08T00:50:51;102058.16;;;15.73;94.54
81641;BME280;71053;50.722;-1.944;2023-10-08T00:53:16;102060.38;;;15.77;93.78
81641;BME280;71053;50.722;-1.944;2023-10-08T00:55:42;102064.48;;;15.64;94.49
81641;BME280;71053;50.722;-1.944;2023-10-08T00:58:07;102062.41;;;15.74;94.36
81641;BME280;71053;50.722;-1.944;2023-10-08T01:00:33;102066.28;;;15.73;94.99
81641;BME280;71053;50.722;-1.944;2023-10-08T01:02:58;102071.22;;;15.71;94.18
81641;BME280;71053;50.722;-1.944;2023-10-08T01:05:24;102073.58;;;15.73;94.13
81641;BME280;71053;50.722;-1.944;2023-10-08T01:07:49;102074.09;;;15.69;93.13
81641;BME280;71053;50.722;-1.944;2023-10-08T01:10:14;102073.69;;;15.79;93.43
81641;BME280;71053;50.722;-1.944;2023-10-08T01:12:39;102078.28;;;15.79;93.07
81641;BME280;71053;50.722;-1.944;2023-10-08T01:15:06;102079.14;;;15.70;93.40
81641;BME280;71053;50.722;-1.944;2023-10-08T01:17:30;102077.33;;;15.80;92.36
81641;BME280;71053;50.722;-1.944;2023-10-08T01:19:56;102076.86;;;15.71;92.46
81641;BME280;71053;50.722;-1.944;2023-10-08T01:22:21;102072.83;;;15.80;92.52
81641;BME280;71053;50.722;-1.944;2023-10-08T01:24:47;102069.96;;;15.80;92.19
81641;BME280;71053;50.722;-1.944;2023-10-08T01:27:12;102070.83;;;15.82;91.67
81641;BME280;71053;50.722;-1.944;2023-10-08T01:29:37;102070.14;;;15.73;92.48
81641;BME280;71053;50.722;-1.944;2023-10-08T01:32:03;102067.98;;;15.81;91.99
81641;BME280;71053;50.722;-1.944;2023-10-08T01:34:28;102063.11;;;15.85;91.48
81641;BME280;71053;50.722;-1.944;2023-10-08T01:36:53;102057.58;;;15.92;91.23
81641;BME280;71053;50.722;-1.944;2023-10-08T01:39:19;102055.86;;;16.04;89.65
81641;BME280;71053;50.722;-1.944;2023-10-08T01:41:44;102053.98;;;15.82;90.71
81641;BME280;71053;50.722;-1.944;2023-10-08T01:44:10;102053.43;;;15.72;92.13
81641;BME280;71053;50.722;-1.944;2023-10-08T01:46:35;102051.52;;;15.69;91.56
81641;BME280;71053;50.722;-1.944;2023-10-08T01:49:01;102052.02;;;15.80;90.93
81641;BME280;71053;50.722;-1.944;2023-10-08T01:51:26;102053.92;;;15.96;90.24
81641;BME280;71053;50.722;-1.944;2023-10-08T01:53:52;102054.69;;;15.96;89.46
81641;BME280;71053;50.722;-1.944;2023-10-08T01:56:17;102055.77;;;15.76;90.22
81641;BME280;71053;50.722;-1.944;2023-10-08T01:58:43;102053.80;;;15.70;91.46
81641;BME280;71053;50.722;-1.944;2023-10-08T02:01:08;102052.28;;;15.70;92.01
81641;BME280;71053;50.722;-1.944;2023-10-08T02:03:34;102049.48;;;15.74;91.15
81641;BME280;71053;50.722;-1.944;2023-10-08T02:05:59;102053.17;;;15.62;90.34
81641;BME280;71053;50.722;-1.944;2023-10-08T02:08:24;102054.85;;;15.65;90.68
81641;BME280;71053;50.722;-1.944;2023-10-08T02:10:50;102056.04;;;15.65;90.77
81641;BME280;71053;50.722;-1.944;2023-10-08T02:13:15;102057.20;;;15.54;92.08
81641;BME280;71053;50.722;-1.944;2023-10-08T02:15:43;102061.73;;;15.57;90.84
81641;BME280;71053;50.722;-1.944;2023-10-08T02:18:06;102061.86;;;15.58;90.99
81641;BME280;71053;50.722;-1.944;2023-10-08T02:20:31;102058.03;;;15.67;91.69
81641;BME280;71053;50.722;-1.944;2023-10-08T02:22:56;102055.78;;;15.58;91.43
81641;BME280;71053;50.722;-1.944;2023-10-08T02:25:22;102052.40;;;15.61;91.11
81641;BME280;71053;50.722;-1.944;2023-10-08T02:27:47;102052.55;;;15.48;91.49
81641;BME280;71053;50.722;-1.944;2023-10-08T02:30:13;102053.95;;;15.51;90.65
81641;BME280;71053;50.722;-1.944;2023-10-08T02:32:38;102056.72;;;15.50;91.61
81641;BME280;71053;50.722;-1.944;2023-10-08T02:35:04;102057.71;;;15.55;91.52
81641;BME280;71053;50.722;-1.944;2023-10-08T02:37:29;102057.83;;;15.46;91.27
81641;BME280;71053;50.722;-1.944;2023-10-08T02:39:54;102055.82;;;15.55;91.78
81641;BME280;71053;50.722;-1.944;2023-10-08T02:42:19;102056.75;;;15.60;91.34
81641;BME280;71053;50.722;-1.944;2023-10-08T02:44:45;102054.63;;;15.58;91.44
81641;BME280;71053;50.722;-1.944;2023-10-08T02:47:10;102055.63;;;15.47;91.98
81641;BME280;71053;50.722;-1.944;2023-10-08T02:49:35;102058.45;;;15.47;91.95
81641;BME280;71053;50.722;-1.944;2023-10-08T02:52:00;102059.67;;;15.42;91.50
81641;BME280;71053;50.722;-1.944;2023-10-08T02:54:26;102059.79;;;15.37;91.70
81641;BME280;71053;50.722;-1.944;2023-10-08T02:56:52;102059.16;;;15.42;91.75
81641;BME280;71053;50.722;-1.944;2023-10-08T02:59:16;102058.26;;;15.41;91.90
81641;BME280;71053;50.722;-1.944;2023-10-08T03:01:41;102058.54;;;15.38;91.74
81641;BME280;71053;50.722;-1.944;2023-10-08T03:04:07;102058.75;;;15.40;91.77
81641;BME280;71053;50.722;-1.944;2023-10-08T03:06:32;102057.30;;;15.54;90.92
81641;BME280;71053;50.722;-1.944;2023-10-08T03:08:57;102052.52;;;15.53;90.65
81641;BME280;71053;50.722;-1.944;2023-10-08T03:11:22;102050.78;;;15.37;91.59
81641;BME280;71053;50.722;-1.944;2023-10-08T03:13:48;102045.24;;;15.39;91.26
81641;BME280;71053;50.722;-1.944;2023-10-08T03:16:13;102047.26;;;15.43;91.02
81641;BME280;71053;50.722;-1.944;2023-10-08T03:18:38;102047.17;;;15.48;90.69
81641;BME280;71053;50.722;-1.944;2023-10-08T03:21:05;102046.91;;;15.48;90.58
81641;BME280;71053;50.722;-1.944;2023-10-08T03:23:29;102044.24;;;15.46;90.32
81641;BME280;71053;50.722;-1.944;2023-10-08T03:25:56;102043.06;;;15.47;91.30
81641;BME280;71053;50.722;-1.944;2023-10-08T03:28:20;102043.68;;;15.45;91.06
81641;BME280;71053;50.722;-1.944;2023-10-08T03:30:45;102038.57;;;15.49;91.31
81641;BME280;71053;50.722;-1.944;2023-10-08T03:33:10;102038.97;;;15.50;91.28
81641;BME280;71053;50.722;-1.944;2023-10-08T03:35:36;102038.66;;;15.53;91.40
81641;BME280;71053;50.722;-1.944;2023-10-08T03:38:01;102038.96;;;15.47;91.63
81641;BME280;71053;50.722;-1.944;2023-10-08T03:40:27;102037.79;;;15.55;91.61
81641;BME280;71053;50.722;-1.944;2023-10-08T03:42:52;102038.63;;;15.58;91.48
81641;BME280;71053;50.722;-1.944;2023-10-08T03:45:18;102035.34;;;15.21;92.65
81641;BME280;71053;50.722;-1.944;2023-10-08T03:47:43;102038.26;;;15.28;92.76
81641;BME280;71053;50.722;-1.944;2023-10-08T03:50:09;102037.55;;;15.37;92.06
81641;BME280;71053;50.722;-1.944;2023-10-08T03:52:33;102037.94;;;15.42;92.36
81641;BME280;71053;50.722;-1.944;2023-10-08T03:54:59;102040.15;;;15.48;92.74
81641;BME280;71053;50.722;-1.944;2023-10-08T03:57:24;102042.78;;;15.45;93.02
81641;BME280;71053;50.722;-1.944;2023-10-08T03:59:49;102043.40;;;15.28;92.73
81641;BME280;71053;50.722;-1.944;2023-10-08T04:02:14;102045.09;;;15.41;92.73
81641;BME280;71053;50.722;-1.944;2023-10-08T04:04:40;102045.56;;;15.38;92.28
81641;BME280;71053;50.722;-1.944;2023-10-08T04:07:05;102045.21;;;15.31;92.58
81641;BME280;71053;50.722;-1.944;2023-10-08T04:09:31;102043.57;;;15.40;92.33
81641;BME280;71053;50.722;-1.944;2023-10-08T04:11:56;102040.08;;;15.47;91.15
81641;BME280;71053;50.722;-1.944;2023-10-08T04:14:23;102037.61;;;15.40;91.21
81641;BME280;71053;50.722;-1.944;2023-10-08T04:16:47;102036.99;;;15.37;90.72
81641;BME280;71053;50.722;-1.944;2023-10-08T04:19:13;102037.38;;;15.31;90.81
81641;BME280;71053;50.722;-1.944;2023-10-08T04:21:38;102036.13;;;15.27;91.07
81641;BME280;71053;50.722;-1.944;2023-10-08T04:24:03;102034.58;;;15.25;90.69
81641;BME280;71053;50.722;-1.944;2023-10-08T04:26:28;102033.89;;;15.23;90.64
81641;BME280;71053;50.722;-1.944;2023-10-08T04:28:55;102036.03;;;15.18;90.12
81641;BME280;71053;50.722;-1.944;2023-10-08T04:31:20;102038.18;;;15.21;90.49
81641;BME280;71053;50.722;-1.944;2023-10-08T04:33:45;102036.76;;;15.20;90.52
81641;BME280;71053;50.722;-1.944;2023-10-08T04:36:11;102037.06;;;15.19;90.81
81641;BME280;71053;50.722;-1.944;2023-10-08T04:38:36;102033.95;;;15.21;90.12
81641;BME280;71053;50.722;-1.944;2023-10-08T04:41:01;102031.84;;;15.17;90.15
81641;BME280;71053;50.722;-1.944;2023-10-08T04:43:26;102031.52;;;15.14;89.90
81641;BME280;71053;50.722;-1.944;2023-10-08T04:45:52;102028.22;;;15.14;89.68
81641;BME280;71053;50.722;-1.944;2023-10-08T04:48:17;102032.88;;;15.09;89.76
81641;BME280;71053;50.722;-1.944;2023-10-08T04:50:43;102033.40;;;15.09;89.69
81641;BME280;71053;50.722;-1.944;2023-10-08T04:53:08;102034.90;;;15.03;89.75
81641;BME280;71053;50.722;-1.944;2023-10-08T04:55:34;102034.97;;;14.93;90.54
81641;BME280;71053;50.722;-1.944;2023-10-08T04:57:59;102033.91;;;14.78;90.48
81641;BME280;71053;50.722;-1.944;2023-10-08T05:00:24;102032.18;;;14.82;90.91
81641;BME280;71053;50.722;-1.944;2023-10-08T05:02:49;102029.04;;;14.82;90.28
81641;BME280;71053;50.722;-1.944;2023-10-08T05:05:15;102026.56;;;14.84;90.14
81641;BME280;71053;50.722;-1.944;2023-10-08T05:07:40;102020.36;;;14.83;89.44
81641;BME280;71053;50.722;-1.944;2023-10-08T05:10:06;102018.04;;;14.86;89.63
81641;BME280;71053;50.722;-1.944;2023-10-08T05:12:31;102017.18;;;14.75;90.03
81641;BME280;71053;50.722;-1.944;2023-10-08T05:14:56;102016.52;;;14.74;89.79
81641;BME280;71053;50.722;-1.944;2023-10-08T05:17:21;102016.88;;;14.79;89.75
81641;BME280;71053;50.722;-1.944;2023-10-08T05:19:47;102019.87;;;14.81;89.56
81641;BME280;71053;50.722;-1.944;2023-10-08T05:22:13;102023.68;;;14.84;89.59
81641;BME280;71053;50.722;-1.944;2023-10-08T05:24:38;102021.04;;;14.80;89.86
81641;BME280;71053;50.722;-1.944;2023-10-08T05:29:29;102025.97;;;14.79;91.11
81641;BME280;71053;50.722;-1.944;2023-10-08T05:31:54;102024.84;;;14.81;91.09
81641;BME280;71053;50.722;-1.944;2023-10-08T05:34:20;102023.63;;;14.88;91.73
81641;BME280;71053;50.722;-1.944;2023-10-08T05:36:46;102024.83;;;14.92;91.81
81641;BME280;71053;50.722;-1.944;2023-10-08T05:39:11;102022.58;;;14.90;90.57
81641;BME280;71053;50.722;-1.944;2023-10-08T05:41:36;102019.95;;;14.85;89.73
81641;BME280;71053;50.722;-1.944;2023-10-08T05:44:01;102020.26;;;14.83;89.20
81641;BME280;71053;50.722;-1.944;2023-10-08T05:46:27;102020.55;;;14.82;88.89
81641;BME280;71053;50.722;-1.944;2023-10-08T05:48:54;102019.55;;;14.85;88.90
81641;BME280;71053;50.722;-1.944;2023-10-08T05:51:18;102019.49;;;14.84;88.83
81641;BME280;71053;50.722;-1.944;2023-10-08T05:53:43;102018.53;;;14.76;88.80
81641;BME280;71053;50.722;-1.944;2023-10-08T05:56:08;102014.87;;;14.59;89.73
81641;BME280;71053;50.722;-1.944;2023-10-08T05:58:34;102017.97;;;14.61;88.83
81641;BME280;71053;50.722;-1.944;2023-10-08T06:00:59;102018.49;;;14.57;89.26
81641;BME280;71053;50.722;-1.944;2023-10-08T06:03:24;102018.14;;;14.58;88.82
81641;BME280;71053;50.722;-1.944;2023-10-08T06:05:49;102021.68;;;14.60;87.95
81641;BME280;71053;50.722;-1.944;2023-10-08T06:08:15;102021.68;;;14.54;88.74
81641;BME280;71053;50.722;-1.944;2023-10-08T06:10:40;102022.62;;;14.54;88.50
81641;BME280;71053;50.722;-1.944;2023-10-08T06:13:07;102022.09;;;14.52;88.47
81641;BME280;71053;50.722;-1.944;2023-10-08T06:15:35;102021.85;;;14.47;88.89
81641;BME280;71053;50.722;-1.944;2023-10-08T06:17:56;102023.30;;;14.47;89.16
81641;BME280;71053;50.722;-1.944;2023-10-08T06:20:22;102025.95;;;14.43;89.84
81641;BME280;71053;50.722;-1.944;2023-10-08T06:22:47;102022.53;;;14.48;89.74
81641;BME280;71053;50.722;-1.944;2023-10-08T06:25:12;102021.64;;;14.55;89.24
81641;BME280;71053;50.722;-1.944;2023-10-08T06:27:37;102021.57;;;14.53;89.30
81641;BME280;71053;50.722;-1.944;2023-10-08T06:30:03;102026.43;;;14.51;90.54
81641;BME280;71053;50.722;-1.944;2023-10-08T06:32:28;102029.88;;;14.48;92.04
81641;BME280;71053;50.722;-1.944;2023-10-08T06:34:53;102030.56;;;14.56;91.67
81641;BME280;71053;50.722;-1.944;2023-10-08T06:37:18;102025.55;;;14.51;91.89
81641;BME280;71053;50.722;-1.944;2023-10-08T06:39:44;102028.77;;;14.36;91.96
81641;BME280;71053;50.722;-1.944;2023-10-08T06:42:09;102030.50;;;14.37;92.94
81641;BME280;71053;50.722;-1.944;2023-10-08T06:44:34;102024.96;;;14.32;93.44
81641;BME280;71053;50.722;-1.944;2023-10-08T06:47:00;102021.74;;;14.39;93.10
81641;BME280;71053;50.722;-1.944;2023-10-08T06:49:25;102016.21;;;14.37;92.98
81641;BME280;71053;50.722;-1.944;2023-10-08T06:51:51;102011.36;;;14.39;92.60
81641;BME280;71053;50.722;-1.944;2023-10-08T06:54:15;102007.35;;;14.46;92.83
81641;BME280;71053;50.722;-1.944;2023-10-08T06:56:41;102003.77;;;14.46;92.79
81641;BME280;71053;50.722;-1.944;2023-10-08T06:59:07;101999.24;;;14.54;92.37
81641;BME280;71053;50.722;-1.944;2023-10-08T07:01:32;101998.07;;;14.65;91.93
81641;BME280;71053;50.722;-1.944;2023-10-08T07:03:57;101996.58;;;14.71;91.91
81641;BME280;71053;50.722;-1.944;2023-10-08T07:06:23;101999.93;;;14.72;91.76
81641;BME280;71053;50.722;-1.944;2023-10-08T07:08:48;102003.31;;;14.81;91.56
81641;BME280;71053;50.722;-1.944;2023-10-08T07:11:13;102009.29;;;14.89;90.45
81641;BME280;71053;50.722;-1.944;2023-10-08T07:13:39;102011.23;;;14.74;93.28
81641;BME280;71053;50.722;-1.944;2023-10-08T07:16:05;102011.95;;;14.77;92.66
81641;BME280;71053;50.722;-1.944;2023-10-08T07:18:29;102013.79;;;14.83;92.13
81641;BME280;71053;50.722;-1.944;2023-10-08T07:20:55;102021.29;;;14.87;91.83
81641;BME280;71053;50.722;-1.944;2023-10-08T07:23:19;102021.38;;;14.87;91.82
81641;BME280;71053;50.722;-1.944;2023-10-08T07:25:48;102023.21;;;14.83;91.90
81641;BME280;71053;50.722;-1.944;2023-10-08T07:28:10;102023.68;;;14.66;92.56
81641;BME280;71053;50.722;-1.944;2023-10-08T07:30:37;102024.66;;;14.66;93.10
81641;BME280;71053;50.722;-1.944;2023-10-08T07:33:01;102025.94;;;14.88;92.31
81641;BME280;71053;50.722;-1.944;2023-10-08T07:35:26;102027.68;;;15.00;91.29
81641;BME280;71053;50.722;-1.944;2023-10-08T07:37:53;102024.90;;;15.09;91.26
81641;BME280;71053;50.722;-1.944;2023-10-08T07:40:17;102023.78;;;15.16;91.25
81641;BME280;71053;50.722;-1.944;2023-10-08T07:42:43;102020.72;;;15.25;91.48
81641;BME280;71053;50.722;-1.944;2023-10-08T07:45:10;102021.77;;;15.32;91.53
81641;BME280;71053;50.722;-1.944;2023-10-08T07:47:34;102023.14;;;15.40;91.62
81641;BME280;71053;50.722;-1.944;2023-10-08T07:49:59;102024.00;;;15.44;92.10
81641;BME280;71053;50.722;-1.944;2023-10-08T07:52:25;102025.35;;;15.51;92.67
81641;BME280;71053;50.722;-1.944;2023-10-08T07:54:50;102031.23;;;15.58;92.84
81641;BME280;71053;50.722;-1.944;2023-10-08T07:57:16;102033.88;;;15.69;93.00
81641;BME280;71053;50.722;-1.944;2023-10-08T07:59:42;102032.05;;;15.76;93.09
81641;BME280;71053;50.722;-1.944;2023-10-08T08:02:08;102032.72;;;15.85;92.76
81641;BME280;71053;50.722;-1.944;2023-10-08T08:04:32;102037.91;;;15.96;92.64
81641;BME280;71053;50.722;-1.944;2023-10-08T08:06:58;102041.02;;;16.07;92.47
81641;BME280;71053;50.722;-1.944;2023-10-08T08:09:23;102044.05;;;16.17;92.18
81641;BME280;71053;50.722;-1.944;2023-10-08T08:11:49;102044.12;;;16.24;91.86
81641;BME280;71053;50.722;-1.944;2023-10-08T08:14:15;102046.84;;;16.28;92.38
81641;BME280;71053;50.722;-1.944;2023-10-08T08:16:39;102049.53;;;16.42;92.00
81641;BME280;71053;50.722;-1.944;2023-10-08T08:19:05;102051.87;;;16.56;91.65
81641;BME280;71053;50.722;-1.944;2023-10-08T08:21:30;102049.37;;;16.63;91.41
81641;BME280;71053;50.722;-1.944;2023-10-08T08:23:56;102049.79;;;16.67;91.34
81641;BME280;71053;50.722;-1.944;2023-10-08T08:26:23;102054.02;;;16.79;91.04
81641;BME280;71053;50.722;-1.944;2023-10-08T08:28:46;102061.00;;;16.89;90.50
81641;BME280;71053;50.722;-1.944;2023-10-08T08:31:11;102063.60;;;16.99;90.01
81641;BME280;71053;50.722;-1.944;2023-10-08T08:33:37;102066.88;;;17.06;89.87
81641;BME280;71053;50.722;-1.944;2023-10-08T08:36:03;102070.86;;;17.16;89.47
81641;BME280;71053;50.722;-1.944;2023-10-08T08:38:28;102072.29;;;17.24;89.42
81641;BME280;71053;50.722;-1.944;2023-10-08T08:41:03;102065.16;;;17.35;89.28
81641;BME280;71053;50.722;-1.944;2023-10-08T08:43:19;102067.35;;;17.44;89.26
81641;BME280;71053;50.722;-1.944;2023-10-08T08:45:44;102069.07;;;17.49;89.46
81641;BME280;71053;50.722;-1.944;2023-10-08T08:48:10;102070.87;;;17.57;89.87
81641;BME280;71053;50.722;-1.944;2023-10-08T08:50:37;102068.76;;;17.66;89.73
81641;BME280;71053;50.722;-1.944;2023-10-08T08:53:00;102067.02;;;17.76;89.85
81641;BME280;71053;50.722;-1.944;2023-10-08T08:55:27;102065.17;;;17.81;90.10
81641;BME280;71053;50.722;-1.944;2023-10-08T08:57:51;102064.52;;;17.91;90.13
81641;BME280;71053;50.722;-1.944;2023-10-08T09:00:18;102066.47;;;17.89;89.97
81641;BME280;71053;50.722;-1.944;2023-10-08T09:02:42;102066.70;;;17.91;89.96
81641;BME280;71053;50.722;-1.944;2023-10-08T09:05:08;102067.61;;;17.99;89.75
81641;BME280;71053;50.722;-1.944;2023-10-08T09:07:35;102067.71;;;18.13;89.22
81641;BME280;71053;50.722;-1.944;2023-10-08T09:09:58;102068.99;;;18.24;88.76
81641;BME280;71053;50.722;-1.944;2023-10-08T09:12:23;102072.30;;;18.09;88.41
81641;BME280;71053;50.722;-1.944;2023-10-08T09:14:48;102076.87;;;18.24;87.96
81641;BME280;71053;50.722;-1.944;2023-10-08T09:17:14;102074.51;;;18.37;87.32
81641;BME280;71053;50.722;-1.944;2023-10-08T09:19:39;102074.83;;;18.36;86.14
81641;BME280;71053;50.722;-1.944;2023-10-08T09:22:05;102071.46;;;18.51;86.54
81641;BME280;71053;50.722;-1.944;2023-10-08T09:24:29;102072.73;;;18.67;86.47
81641;BME280;71053;50.722;-1.944;2023-10-08T09:26:55;102073.97;;;18.48;87.18
81641;BME280;71053;50.722;-1.944;2023-10-08T09:29:22;102077.51;;;18.63;86.92
81641;BME280;71053;50.722;-1.944;2023-10-08T09:31:51;102083.27;;;18.63;86.36
81641;BME280;71053;50.722;-1.944;2023-10-08T09:34:16;102087.31;;;18.74;86.71
81641;BME280;71053;50.722;-1.944;2023-10-08T09:36:36;102087.77;;;18.88;86.08
81641;BME280;71053;50.722;-1.944;2023-10-08T09:39:02;102091.19;;;19.03;85.41
81641;BME280;71053;50.722;-1.944;2023-10-08T09:41:29;102099.87;;;18.91;85.90
81641;BME280;71053;50.722;-1.944;2023-10-08T09:43:52;102099.33;;;18.96;86.39
81641;BME280;71053;50.722;-1.944;2023-10-08T09:46:19;102100.31;;;19.09;85.01
81641;BME280;71053;50.722;-1.944;2023-10-08T09:48:48;102100.45;;;19.19;82.87
81641;BME280;71053;50.722;-1.944;2023-10-08T09:51:10;102100.01;;;19.32;82.68
81641;BME280;71053;50.722;-1.944;2023-10-08T09:53:40;102096.70;;;19.33;82.80
81641;BME280;71053;50.722;-1.944;2023-10-08T09:55:58;102101.08;;;19.25;82.40
81641;BME280;71053;50.722;-1.944;2023-10-08T09:58:24;102104.34;;;19.34;82.59
81641;BME280;71053;50.722;-1.944;2023-10-08T10:00:49;102108.77;;;19.32;82.84
81641;BME280;71053;50.722;-1.944;2023-10-08T10:03:13;102108.81;;;19.53;81.97
81641;BME280;71053;50.722;-1.944;2023-10-08T10:05:38;102106.39;;;19.56;82.43
81641;BME280;71053;50.722;-1.944;2023-10-08T10:08:04;102102.67;;;19.57;81.45
81641;BME280;71053;50.722;-1.944;2023-10-08T10:10:30;102100.50;;;19.31;81.92
81641;BME280;71053;50.722;-1.944;2023-10-08T10:12:58;102100.33;;;19.55;81.62
81641;BME280;71053;50.722;-1.944;2023-10-08T10:15:20;102106.47;;;19.71;79.66
81641;BME280;71053;50.722;-1.944;2023-10-08T10:17:47;102107.30;;;19.68;79.43
81641;BME280;71053;50.722;-1.944;2023-10-08T10:20:10;102110.85;;;19.90;79.32
81641;BME280;71053;50.722;-1.944;2023-10-08T10:22:35;102105.58;;;19.86;79.65
81641;BME280;71053;50.722;-1.944;2023-10-08T10:25:00;102108.05;;;19.91;78.80
81641;BME280;71053;50.722;-1.944;2023-10-08T10:27:24;102106.42;;;19.84;79.93
81641;BME280;71053;50.722;-1.944;2023-10-08T10:29:49;102104.78;;;19.95;78.18
81641;BME280;71053;50.722;-1.944;2023-10-08T10:32:15;102107.77;;;19.92;78.36
81641;BME280;71053;50.722;-1.944;2023-10-08T10:34:40;102113.14;;;19.89;76.84
81641;BME280;71053;50.722;-1.944;2023-10-08T10:37:05;102116.21;;;20.12;73.69
81641;BME280;71053;50.722;-1.944;2023-10-08T10:39:31;102123.18;;;20.04;73.49
81641;BME280;71053;50.722;-1.944;2023-10-08T10:41:57;102124.19;;;20.12;74.80
81641;BME280;71053;50.722;-1.944;2023-10-08T10:44:20;102127.15;;;20.03;75.15
81641;BME280;71053;50.722;-1.944;2023-10-08T10:46:46;102124.70;;;20.30;73.95
81641;BME280;71053;50.722;-1.944;2023-10-08T10:49:10;102130.56;;;20.40;75.59
81641;BME280;71053;50.722;-1.944;2023-10-08T10:51:36;102129.91;;;20.46;76.14
81641;BME280;71053;50.722;-1.944;2023-10-08T10:54:01;102126.52;;;20.71;69.74
81641;BME280;71053;50.722;-1.944;2023-10-08T10:56:26;102127.60;;;20.81;69.25
81641;BME280;71053;50.722;-1.944;2023-10-08T10:58:51;102129.81;;;20.91;69.96
81641;BME280;71053;50.722;-1.944;2023-10-08T11:01:16;102126.08;;;20.86;68.60
81641;BME280;71053;50.722;-1.944;2023-10-08T11:03:41;102122.47;;;20.85;67.90
81641;BME280;71053;50.722;-1.944;2023-10-08T11:06:06;102120.84;;;20.85;67.68
81641;BME280;71053;50.722;-1.944;2023-10-08T11:08:31;102116.86;;;20.92;64.37
81641;BME280;71053;50.722;-1.944;2023-10-08T11:10:56;102113.37;;;21.09;65.14
81641;BME280;71053;50.722;-1.944;2023-10-08T11:13:23;102114.36;;;21.17;63.02
81641;BME280;71053;50.722;-1.944;2023-10-08T11:15:47;102113.98;;;21.28;63.07
81641;BME280;71053;50.722;-1.944;2023-10-08T11:18:11;102114.92;;;21.34;64.42
81641;BME280;71053;50.722;-1.944;2023-10-08T11:20:37;102107.15;;;21.25;60.12
81641;BME280;71053;50.722;-1.944;2023-10-08T11:23:01;102107.61;;;21.37;60.24
81641;BME280;71053;50.722;-1.944;2023-10-08T11:25:26;102104.45;;;21.31;58.72
81641;BME280;71053;50.722;-1.944;2023-10-08T11:27:52;102103.71;;;21.41;58.64
81641;BME280;71053;50.722;-1.944;2023-10-08T11:30:16;102100.70;;;21.39;61.40
81641;BME280;71053;50.722;-1.944;2023-10-08T11:32:41;102097.04;;;21.57;60.62
81641;BME280;71053;50.722;-1.944;2023-10-08T11:35:07;102098.81;;;21.33;61.39
81641;BME280;71053;50.722;-1.944;2023-10-08T11:37:32;102095.46;;;21.41;61.15
81641;BME280;71053;50.722;-1.944;2023-10-08T11:39:56;102093.45;;;21.67;60.37
81641;BME280;71053;50.722;-1.944;2023-10-08T11:42:21;102092.43;;;21.86;60.23
81641;BME280;71053;50.722;-1.944;2023-10-08T11:44:46;102086.19;;;21.71;61.85
81641;BME280;71053;50.722;-1.944;2023-10-08T11:47:11;102086.76;;;21.87;61.36
81641;BME280;71053;50.722;-1.944;2023-10-08T11:49:36;102084.79;;;22.00;61.99
81641;BME280;71053;50.722;-1.944;2023-10-08T11:52:02;102081.90;;;21.90;60.58
81641;BME280;71053;50.722;-1.944;2023-10-08T11:54:27;102080.73;;;22.10;59.36
81641;BME280;71053;50.722;-1.944;2023-10-08T11:56:52;102070.33;;;22.13;60.70
81641;BME280;71053;50.722;-1.944;2023-10-08T11:59:17;102071.88;;;22.08;60.28
81641;BME280;71053;50.722;-1.944;2023-10-08T12:01:42;102067.90;;;22.34;59.07
81641;BME280;71053;50.722;-1.944;2023-10-08T12:04:08;102059.40;;;22.32;61.20
81641;BME280;71053;50.722;-1.944;2023-10-08T12:06:32;102056.73;;;22.42;58.95
81641;BME280;71053;50.722;-1.944;2023-10-08T12:08:57;102051.21;;;22.55;60.07
81641;BME280;71053;50.722;-1.944;2023-10-08T12:11:22;102048.44;;;22.37;59.01
81641;BME280;71053;50.722;-1.944;2023-10-08T12:13:48;102044.52;;;22.45;60.00
81641;BME280;71053;50.722;-1.944;2023-10-08T12:16:14;102039.02;;;22.53;59.21
81641;BME280;71053;50.722;-1.944;2023-10-08T12:18:40;102036.05;;;22.45;60.29
81641;BME280;71053;50.722;-1.944;2023-10-08T12:21:05;102032.18;;;22.46;58.89
81641;BME280;71053;50.722;-1.944;2023-10-08T12:23:30;102026.69;;;22.63;59.22
81641;BME280;71053;50.722;-1.944;2023-10-08T12:25:56;102031.92;;;22.50;61.85
81641;BME280;71053;50.722;-1.944;2023-10-08T12:28:22;102028.81;;;22.04;59.55
81641;BME280;71053;50.722;-1.944;2023-10-08T12:30:48;102027.03;;;22.06;61.61
81641;BME280;71053;50.722;-1.944;2023-10-08T12:33:14;102025.35;;;22.17;60.26